Time;durP1;ratioP1;P1;durP2;ratioP2;P2;SDS_P1;SDS_P2;PMS_P1;PMS_P2;Temp;Humidity;BMP_temperature;BMP_pressure;BME280_temperature;BME280_humidity;BME280_pressure;Samples;Min_cycle;Max_cycle;Signal;HPM_P1;HPM_P2
2021/10/08 00:00:27;;;;;;;24.85;13.00;;;7.10;99.90;;;8.16;100.00;101954.34;6096904;23;20463;-76
2021/10/08 00:02:55;;;;;;;16.17;9.85;;;7.10;99.90;;;8.04;100.00;101954.88;6097075;23;20473;-78
2021/10/08 00:05:21;;;;;;;20.40;10.63;;;6.90;99.90;;;7.92;100.00;101960.13;6097851;23;20030;-78
2021/10/08 00:07:47;;;;;;;20.48;12.07;;;6.80;99.90;;;7.83;100.00;101954.44;6048428;23;20019;-80
2021/10/08 00:10:14;;;;;;;22.33;12.07;;;6.70;99.90;;;7.80;100.00;101959.84;6097217;23;20014;-79
2021/10/08 00:12:39;;;;;;;24.38;13.02;;;6.70;99.90;;;7.79;100.00;101955.38;6098539;23;20096;-80
2021/10/08 00:15:07;;;;;;;22.10;12.50;;;6.70;99.90;;;7.75;100.00;101957.97;6072764;23;20014;-79
2021/10/08 00:17:33;;;;;;;22.05;11.85;;;6.60;99.90;;;7.68;100.00;101965.03;6074217;23;20014;-79
2021/10/08 00:19:58;;;;;;;19.17;11.10;;;6.50;99.90;;;7.60;100.00;101958.25;6099769;23;20388;-79
2021/10/08 00:22:24;;;;;;;18.98;11.00;;;6.50;99.90;;;7.54;100.00;101959.47;6098784;23;20006;-78
2021/10/08 00:24:51;;;;;;;19.08;11.32;;;6.40;99.90;;;7.56;100.00;101965.56;6097358;23;20507;-80
2021/10/08 00:27:17;;;;;;;25.35;12.85;;;6.40;99.90;;;7.51;100.00;101951.75;6097228;23;20017;-80
2021/10/08 00:29:43;;;;;;;21.40;11.50;;;6.40;99.90;;;7.52;100.00;101958.94;6071518;23;20011;-80
2021/10/08 00:32:08;;;;;;;22.58;12.13;;;6.40;99.90;;;7.50;100.00;101961.22;6071875;23;20010;-79
2021/10/08 00:34:34;;;;;;;18.67;11.38;;;6.40;99.90;;;7.45;100.00;101960.50;6097360;23;20006;-79
2021/10/08 00:37:00;;;;;;;18.17;10.63;;;6.30;99.90;;;7.33;100.00;101961.78;6097105;23;20034;-80
2021/10/08 00:39:26;;;;;;;18.77;11.27;;;6.20;99.90;;;7.28;100.00;101961.06;6095575;23;20045;-81
2021/10/08 00:41:53;;;;;;;22.92;12.40;;;6.20;99.90;;;7.24;100.00;101958.06;6097359;23;20425;-82
2021/10/08 00:44:19;;;;;;;22.25;11.43;;;6.10;99.90;;;7.28;100.00;101963.84;6097055;23;20041;-79
2021/10/08 00:46:45;;;;;;;18.38;11.00;;;6.20;99.90;;;7.29;100.00;101962.69;6097218;23;20017;-79
2021/10/08 00:49:12;;;;;;;16.27;8.95;;;6.20;99.90;;;7.22;100.00;101965.06;6103615;23;20003;-79
2021/10/08 00:51:38;;;;;;;16.83;9.43;;;6.10;99.90;;;7.16;100.00;101967.06;6084057;23;20010;-79
2021/10/08 00:54:04;;;;;;;17.38;10.13;;;6.10;99.90;;;7.14;100.00;101958.22;6100180;23;20111;-79
2021/10/08 00:56:32;;;;;;;19.60;11.07;;;6.00;99.90;;;7.13;100.00;101955.75;6074710;23;20011;-81
2021/10/08 00:58:58;;;;;;;20.60;10.30;;;6.00;99.90;;;7.11;100.00;101953.28;6074744;23;20021;-79
2021/10/08 01:01:24;;;;;;;19.38;10.15;;;6.00;99.90;;;7.10;100.00;101956.34;6072431;23;20010;-79
2021/10/08 01:03:52;;;;;;;20.02;11.02;;;6.00;99.90;;;7.14;100.00;101966.56;6097844;23;20041;-79
2021/10/08 01:06:17;;;;;;;19.75;11.02;;;6.00;99.90;;;7.18;100.00;101964.00;6097376;23;20014;-78
2021/10/08 01:08:43;;;;;;;18.83;10.35;;;6.00;99.90;;;7.13;100.00;101962.13;6097254;23;20006;-79
2021/10/08 01:11:10;;;;;;;19.77;10.30;;;6.00;99.90;;;7.09;100.00;101958.34;6071315;23;20030;-77
2021/10/08 01:13:36;;;;;;;19.52;11.40;;;6.00;99.90;;;7.04;100.00;101961.19;6096867;23;20021;-79
2021/10/08 01:16:03;;;;;;;19.15;11.30;;;5.90;99.90;;;6.97;100.00;101955.19;6096829;23;19999;-80
2021/10/08 01:18:29;;;;;;;20.80;11.27;;;5.90;99.90;;;6.90;100.00;101958.34;6096921;23;20440;-80
2021/10/08 01:20:55;;;;;;;18.40;10.75;;;5.80;99.90;;;6.87;100.00;101960.91;6096880;23;20010;-78
2021/10/08 01:23:22;;;;;;;17.90;10.68;;;5.80;99.90;;;6.83;100.00;101960.69;6071321;23;20021;-79
2021/10/08 01:25:51;;;;;;;19.17;10.85;;;5.70;99.90;;;6.80;100.00;101968.78;6096765;23;20002;-80
2021/10/08 01:28:19;;;;;;;18.40;10.65;;;5.70;99.90;;;6.76;100.00;101965.78;6071505;23;20093;-80
2021/10/08 01:30:46;;;;;;;23.25;12.40;;;5.70;99.90;;;6.80;100.00;101966.03;6094828;23;20010;-80
2021/10/08 01:33:12;;;;;;;24.67;12.43;;;5.70;99.90;;;6.86;100.00;101968.41;6071263;23;20007;-78
2021/10/08 01:35:38;;;;;;;21.77;10.55;;;5.80;99.90;;;6.86;100.00;101973.13;6094786;23;20114;-79
2021/10/08 01:38:04;;;;;;;18.48;9.68;;;5.70;99.90;;;6.78;100.00;101974.63;6096615;23;20030;-79
2021/10/08 01:40:30;;;;;;;18.13;10.00;;;5.60;99.90;;;6.70;100.00;101968.94;6096747;23;20073;-78
2021/10/08 01:42:55;;;;;;;19.40;12.13;;;5.60;99.90;;;6.70;100.00;101968.94;6096778;23;20451;-80
2021/10/08 01:45:21;;;;;;;24.23;12.52;;;5.60;99.90;;;6.75;100.00;101961.34;6096813;23;20262;-78
2021/10/08 01:47:47;;;;;;;23.48;12.38;;;5.70;99.90;;;6.83;100.00;101971.81;6071924;23;20010;-79
2021/10/08 01:50:14;;;;;;;22.48;11.57;;;5.70;99.90;;;6.89;100.00;101964.19;6097815;23;20144;-81
2021/10/08 01:52:40;;;;;;;22.75;11.90;;;5.80;99.90;;;6.87;100.00;101970.03;6097808;23;20051;-82
2021/10/08 01:55:07;;;;;;;17.67;10.40;;;5.80;99.90;;;6.77;100.00;101970.22;6073848;23;20021;-82
2021/10/08 01:57:33;;;;;;;20.10;10.15;;;5.70;99.90;;;6.72;100.00;101967.50;6101326;23;20003;-83
2021/10/08 01:59:59;;;;;;;18.40;10.90;;;5.70;99.90;;;6.65;100.00;101969.00;6075577;23;20070;-82
2021/10/08 02:02:25;;;;;;;12.45;8.48;;;5.60;99.90;;;6.57;100.00;101966.91;6099879;23;20203;-83
2021/10/08 02:04:51;;;;;;;16.55;9.27;;;5.50;99.90;;;6.53;100.00;101971.41;6099519;23;20010;-82
2021/10/08 02:07:16;;;;;;;17.58;9.77;;;5.40;99.90;;;6.50;100.00;101964.50;6098929;23;20010;-80
2021/10/08 02:09:43;;;;;;;16.05;10.40;;;5.40;99.90;;;6.49;100.00;101964.78;6096543;23;20325;-81
2021/10/08 02:12:12;;;;;;;23.58;11.18;;;5.40;99.90;;;6.44;100.00;101962.94;6071632;23;20449;-79
2021/10/08 02:14:38;;;;;;;16.75;9.65;;;5.40;99.90;;;6.44;100.00;101964.88;6071103;23;20082;-80
2021/10/08 02:17:04;;;;;;;19.27;10.70;;;5.30;99.90;;;6.44;100.00;101970.44;6096622;23;20448;-79
2021/10/08 02:19:31;;;;;;;22.58;11.20;;;5.40;99.90;;;6.44;100.00;101959.31;6071402;23;20018;-79
2021/10/08 02:21:58;;;;;;;18.70;10.57;;;5.40;99.90;;;6.43;100.00;101968.75;6070979;23;20304;-78
2021/10/08 02:24:23;;;;;;;17.70;10.95;;;5.40;99.90;;;6.39;100.00;101962.97;6096633;23;20034;-80
2021/10/08 02:26:49;;;;;;;20.30;11.52;;;5.30;99.90;;;6.45;100.00;101961.81;6097071;23;20017;-79
2021/10/08 02:29:15;;;;;;;21.13;11.05;;;5.40;99.90;;;6.49;100.00;101956.47;6097138;23;20014;-80
2021/10/08 02:31:41;;;;;;;22.98;12.27;;;5.40;99.90;;;6.55;100.00;101964.41;6097102;23;20151;-82
2021/10/08 02:34:08;;;;;;;21.23;10.95;;;5.40;99.90;;;6.52;100.00;101961.44;6098623;23;20054;-80
2021/10/08 02:36:34;;;;;;;20.30;10.88;;;5.50;99.90;;;6.44;100.00;101962.94;6096649;23;20495;-79
2021/10/08 02:39:00;;;;;;;18.40;10.18;;;5.40;99.90;;;6.41;100.00;101960.75;6096531;23;20007;-79
2021/10/08 02:41:25;;;;;;;21.08;11.02;;;5.30;99.90;;;6.41;100.00;101955.19;6097707;23;20034;-80
2021/10/08 02:43:51;;;;;;;17.30;9.43;;;5.30;99.90;;;6.39;100.00;101962.19;6097641;23;20048;-81
2021/10/08 02:46:17;;;;;;;17.50;9.32;;;5.30;99.90;;;6.31;100.00;101969.22;6096523;23;20064;-80
2021/10/08 02:48:43;;;;;;;14.38;8.95;;;5.30;99.90;;;6.22;100.00;101968.22;6095911;23;20369;-80
2021/10/08 02:51:09;;;;;;;13.05;8.90;;;5.20;99.90;;;6.18;100.00;101968.00;6097677;23;20086;-80
2021/10/08 02:53:35;;;;;;;15.23;8.82;;;5.10;99.90;;;6.14;100.00;101961.38;6094372;23;20017;-79
2021/10/08 02:56:00;;;;;;;14.05;8.10;;;5.10;99.90;;;6.09;100.00;101961.44;6070302;23;20002;-78
2021/10/08 02:58:26;;;;;;;18.38;10.48;;;5.00;99.90;;;6.03;100.00;101954.31;6096075;23;20002;-77
2021/10/08 03:00:54;;;;;;;16.38;9.45;;;5.00;99.90;;;6.02;100.00;101960.16;6096073;23;20007;-78
2021/10/08 03:03:20;;;;;;;18.77;9.63;;;4.90;99.90;;;6.01;100.00;101961.25;6095730;23;20098;-78
2021/10/08 03:05:46;;;;;;;15.25;9.45;;;4.90;99.90;;;5.97;100.00;101961.06;6095578;23;20401;-80
2021/10/08 03:08:12;;;;;;;15.45;8.98;;;4.90;99.90;;;5.95;100.00;101962.44;6096031;23;20057;-78
2021/10/08 03:10:38;;;;;;;16.65;9.07;;;4.90;99.90;;;5.95;100.00;101965.22;6095474;23;20085;-80
2021/10/08 03:13:04;;;;;;;19.77;9.73;;;4.90;99.90;;;5.95;100.00;101957.72;6096071;23;20153;-80
2021/10/08 03:15:30;;;;;;;21.20;9.35;;;4.90;99.90;;;5.95;100.00;101956.91;6095825;23;19999;-78
2021/10/08 03:17:56;;;;;;;18.35;9.75;;;4.90;99.90;;;5.90;100.00;101968.91;6070538;23;20061;-80
2021/10/08 03:20:22;;;;;;;18.92;9.25;;;4.90;99.90;;;5.90;100.00;101956.97;6071441;23;20021;-78
2021/10/08 03:22:49;;;;;;;15.45;8.57;;;4.80;99.90;;;5.84;100.00;101958.97;6097185;23;20061;-76
2021/10/08 03:25:15;;;;;;;20.63;11.90;;;4.80;99.90;;;5.86;100.00;101967.81;6097266;23;20033;-78
2021/10/08 03:27:41;;;;;;;16.60;10.55;;;4.80;99.90;;;5.88;100.00;101961.97;6095680;23;20017;-79
2021/10/08 03:30:14;;;;;;;16.30;9.45;;;4.80;99.90;;;5.88;100.00;101967.50;6072071;23;20097;-78
2021/10/08 03:32:42;;;;;;;16.92;9.40;;;4.80;99.90;;;5.83;100.00;101960.06;6048888;23;20014;-80
2021/10/08 03:35:10;;;;;;;18.15;10.43;;;4.80;99.90;;;5.83;100.00;101960.91;6103218;23;20011;-79
2021/10/08 03:38:13;;;;;;;21.38;10.10;;;4.80;99.90;;;5.85;100.00;101971.69;6071384;23;20014;-78
2021/10/08 03:40:30;;;;;;;16.85;8.98;;;4.80;99.90;;;5.82;100.00;101962.00;6074092;23;20014;-79
2021/10/08 03:42:59;;;;;;;20.15;11.55;;;4.80;99.90;;;5.92;100.00;101971.34;6097339;23;20352;-80
2021/10/08 03:45:31;;;;;;;20.17;11.13;;;4.80;99.90;;;5.99;100.00;101963.50;6096071;23;20045;-79
2021/10/08 03:50:34;;;;;;;21.42;11.30;;;4.90;99.90;;;6.00;100.00;101966.00;6073790;23;20119;-78
2021/10/08 03:53:00;;;;;;;17.67;9.95;;;5.00;99.90;;;6.04;100.00;101971.75;6097606;23;20085;-80
2021/10/08 03:55:26;;;;;;;22.75;11.65;;;5.00;99.90;;;6.08;100.00;101967.28;6071685;23;20017;-78
2021/10/08 03:57:51;;;;;;;20.85;11.20;;;5.00;99.90;;;6.14;100.00;101972.47;6096258;23;20010;-78
2021/10/08 04:00:17;;;;;;;21.33;10.98;;;5.00;99.90;;;6.15;100.00;101973.31;6071532;23;20018;-78
2021/10/08 04:02:43;;;;;;;21.77;11.38;;;5.10;99.90;;;6.20;100.00;101976.84;6071652;23;20125;-78
2021/10/08 04:05:09;;;;;;;17.80;10.30;;;5.10;99.90;;;6.24;100.00;101983.44;6095704;23;20065;-78
2021/10/08 04:07:35;;;;;;;17.35;10.77;;;5.10;99.90;;;6.21;100.00;101984.03;6097221;23;20467;-76
2021/10/08 04:10:01;;;;;;;18.85;9.95;;;5.10;99.90;;;6.15;100.00;101982.47;6098641;23;20029;-80
2021/10/08 04:12:28;;;;;;;17.77;10.07;;;5.10;99.90;;;6.13;100.00;101981.91;6100042;23;20002;-79
2021/10/08 04:14:53;;;;;;;19.75;10.38;;;5.10;99.90;;;6.15;100.00;101993.56;6075506;23;20010;-77
2021/10/08 04:17:19;;;;;;;19.00;10.27;;;5.00;99.90;;;6.13;100.00;101987.47;6079507;23;20010;-80
2021/10/08 04:19:45;;;;;;;19.50;10.15;;;5.00;99.90;;;6.06;100.00;101975.91;6103208;23;20498;-77
2021/10/08 04:22:11;;;;;;;20.27;10.20;;;5.00;99.90;;;6.02;100.00;101991.50;6100718;23;20009;-81
2021/10/08 04:24:37;;;;;;;16.08;9.30;;;4.90;99.90;;;5.96;100.00;101989.06;6101292;23;20058;-80
2021/10/08 04:27:03;;;;;;;15.55;9.82;;;4.90;99.90;;;5.93;100.00;101986.88;6074481;23;20085;-82
2021/10/08 04:29:28;;;;;;;19.35;10.50;;;4.90;99.90;;;5.88;100.00;101995.25;6073247;23;20036;-81
2021/10/08 04:31:54;;;;;;;17.70;10.43;;;4.80;99.90;;;5.87;100.00;101993.63;6072761;23;20002;-80
2021/10/08 04:34:20;;;;;;;20.98;10.52;;;4.80;99.90;;;5.89;100.00;101999.69;6072862;23;20006;-80
2021/10/08 04:36:46;;;;;;;20.55;11.68;;;4.80;99.90;;;5.92;100.00;102001.88;6073568;23;20022;-77
2021/10/08 04:39:12;;;;;;;20.23;11.25;;;4.80;99.90;;;5.94;100.00;102003.22;6073738;23;20016;-80
2021/10/08 04:41:38;;;;;;;16.65;9.93;;;4.80;99.90;;;5.98;100.00;101995.13;6098252;23;20018;-80
2021/10/08 04:44:06;;;;;;;18.65;11.07;;;4.90;99.90;;;5.98;100.00;101998.75;6098273;23;20013;-79
2021/10/08 04:46:32;;;;;;;25.60;11.55;;;4.90;99.90;;;5.97;100.00;101999.06;6099433;23;20007;-82
2021/10/08 04:48:58;;;;;;;15.15;9.70;;;4.90;99.90;;;5.92;100.00;102008.25;6075912;23;20070;-82
2021/10/08 04:51:23;;;;;;;20.77;10.45;;;4.90;99.90;;;5.93;100.00;102009.06;6097702;23;20017;-81
2021/10/08 04:53:49;;;;;;;22.02;11.57;;;4.80;99.90;;;5.95;100.00;102009.59;6096681;23;20013;-81
2021/10/08 04:56:15;;;;;;;20.30;10.95;;;4.90;99.90;;;5.92;100.00;102007.41;6072705;23;20014;-82
2021/10/08 04:58:43;;;;;;;20.60;11.38;;;4.80;99.90;;;5.94;100.00;102010.72;6105652;23;20002;-82
2021/10/08 05:01:09;;;;;;;19.13;10.13;;;4.90;99.90;;;5.92;100.00;102011.00;6110345;23;20006;-83
2021/10/08 05:03:35;;;;;;;20.42;10.80;;;4.90;99.90;;;5.92;100.00;102005.47;6104140;23;20093;-83
2021/10/08 05:06:01;;;;;;;18.15;9.63;;;4.90;99.90;;;5.81;100.00;101999.16;6099613;23;20081;-83
2021/10/08 05:08:27;;;;;;;19.55;11.15;;;4.80;99.90;;;5.77;100.00;101997.28;6098723;23;20021;-81
2021/10/08 05:10:54;;;;;;;19.17;10.27;;;4.70;99.90;;;5.74;100.00;102011.75;6074933;23;20010;-82
2021/10/08 05:13:20;;;;;;;17.58;9.77;;;4.70;99.90;;;5.66;100.00;102007.66;6095548;23;20021;-82
2021/10/08 05:15:46;;;;;;;20.23;10.77;;;4.60;99.90;;;5.62;100.00;102001.03;6122637;23;20062;-79
2021/10/08 05:18:12;;;;;;;19.45;9.65;;;4.60;99.90;;;5.70;100.00;102008.72;6122146;23;20062;-81
2021/10/08 05:20:39;;;;;;;25.65;10.93;;;4.60;99.90;;;5.67;100.00;102008.47;6096206;23;20081;-80
2021/10/08 05:23:06;;;;;;;19.75;9.48;;;4.70;99.90;;;5.66;100.00;102013.19;6092094;23;20016;-79
2021/10/08 05:25:32;;;;;;;19.77;10.65;;;4.60;99.90;;;5.61;100.00;102009.66;6089206;23;20011;-79
2021/10/08 05:27:58;;;;;;;23.40;12.05;;;4.60;99.90;;;5.58;100.00;102002.75;6113350;23;20017;-78
2021/10/08 05:30:24;;;;;;;22.15;11.18;;;4.50;99.90;;;5.59;100.00;102009.09;6104935;23;20011;-79
2021/10/08 05:32:50;;;;;;;22.70;11.25;;;4.50;99.90;;;5.61;100.00;102004.09;6100712;23;20336;-83
2021/10/08 05:35:17;;;;;;;23.13;11.40;;;4.60;99.90;;;5.58;100.00;101999.16;6074070;23;20021;-82
2021/10/08 05:37:44;;;;;;;24.50;11.80;;;4.50;99.90;;;5.58;100.00;101996.38;6079847;23;20066;-79
2021/10/08 05:40:11;;;;;;;20.27;11.27;;;4.50;99.90;;;5.66;100.00;102010.41;6108952;23;20006;-78
2021/10/08 05:42:37;;;;;;;17.83;10.00;;;4.60;99.90;;;5.65;100.00;102005.19;6081171;23;20014;-79
2021/10/08 05:45:04;;;;;;;17.77;9.75;;;4.60;99.90;;;5.72;100.00;102008.41;6075448;23;20340;-80
2021/10/08 05:47:30;;;;;;;18.40;10.32;;;4.60;99.90;;;5.71;100.00;102012.34;6052603;23;20088;-80
2021/10/08 05:49:56;;;;;;;22.73;11.23;;;4.70;99.90;;;5.70;100.00;102014.28;6099425;23;20344;-80
2021/10/08 05:52:22;;;;;;;20.27;10.43;;;4.70;99.90;;;5.75;100.00;102014.22;6074592;23;20010;-81
2021/10/08 05:54:48;;;;;;;21.88;11.07;;;4.70;99.90;;;5.80;100.00;102021.66;6074637;23;20013;-81
2021/10/08 05:57:14;;;;;;;19.52;10.57;;;4.80;99.90;;;5.83;100.00;102013.59;6074843;23;20038;-79
2021/10/08 05:59:41;;;;;;;23.38;11.13;;;4.70;99.90;;;5.89;100.00;102011.59;6073963;23;20012;-82
2021/10/08 06:02:07;;;;;;;22.92;11.32;;;4.80;99.90;;;5.94;100.00;102013.50;6097006;23;20408;-81
2021/10/08 06:04:33;;;;;;;21.65;13.10;;;4.80;99.90;;;5.94;100.00;102017.09;6071719;23;20007;-80
2021/10/08 06:06:59;;;;;;;30.52;14.30;;;4.80;99.90;;;6.01;100.00;102028.66;6071108;23;20057;-80
2021/10/08 06:09:25;;;;;;;36.47;20.15;;;4.90;99.90;;;6.05;100.00;102015.88;6096585;23;20006;-80
2021/10/08 06:11:51;;;;;;;66.00;42.65;;;4.90;99.90;;;6.15;100.00;102026.00;6071613;23;20018;-80
2021/10/08 06:14:17;;;;;;;98.45;61.80;;;5.00;99.90;;;6.23;100.00;102022.56;6096677;23;20003;-80
2021/10/08 06:16:43;;;;;;;65.22;45.50;;;5.00;99.90;;;6.27;100.00;102021.69;6070952;23;20062;-82
2021/10/08 06:19:08;;;;;;;43.33;30.35;;;5.10;99.90;;;6.41;100.00;102030.13;6071144;23;20007;-80
2021/10/08 06:21:35;;;;;;;27.17;16.67;;;5.10;99.90;;;6.50;100.00;102027.50;6070578;23;20400;-80
2021/10/08 06:24:01;;;;;;;18.80;11.80;;;5.20;99.90;;;6.55;100.00;102028.28;6071190;23;20385;-81
2021/10/08 06:26:27;;;;;;;19.20;11.52;;;5.30;99.90;;;6.67;100.00;102037.00;6071211;23;20410;-81
2021/10/08 06:28:53;;;;;;;20.38;10.52;;;5.40;99.90;;;6.83;100.00;102032.91;6071136;23;20048;-81
2021/10/08 06:31:19;;;;;;;18.35;10.35;;;5.60;99.90;;;6.97;100.00;102037.72;6072790;23;20018;-78
2021/10/08 06:33:45;;;;;;;18.48;10.32;;;5.70;99.90;;;7.07;100.00;102035.56;6075187;23;20013;-82
2021/10/08 06:36:11;;;;;;;16.42;10.13;;;5.80;99.90;;;7.23;100.00;102041.72;6076320;23;20018;-80
2021/10/08 06:38:37;;;;;;;16.70;9.32;;;5.90;99.90;;;7.40;100.00;102042.84;6098034;23;20017;-81
2021/10/08 06:41:03;;;;;;;15.73;8.77;;;6.10;99.90;;;7.61;100.00;102045.28;6099378;23;20011;-82
2021/10/08 06:43:29;;;;;;;17.02;9.82;;;6.20;99.90;;;7.77;100.00;102044.69;6070874;23;20014;-81
2021/10/08 06:45:55;;;;;;;15.13;8.57;;;6.40;99.90;;;7.93;100.00;102045.22;6095137;23;20111;-81
2021/10/08 06:48:21;;;;;;;14.57;8.57;;;6.50;99.90;;;8.11;100.00;102046.31;6094952;23;20105;-81
2021/10/08 06:50:47;;;;;;;13.93;8.52;;;6.70;99.90;;;8.30;100.00;102050.66;6070855;23;20026;-80
2021/10/08 06:53:13;;;;;;;14.07;8.10;;;6.90;99.90;;;8.51;100.00;102053.84;6071042;23;20447;-79
2021/10/08 06:55:39;;;;;;;17.77;10.18;;;7.00;99.90;;;8.71;100.00;102058.16;6095584;23;20018;-80
2021/10/08 06:58:06;;;;;;;17.83;9.65;;;7.20;99.90;;;8.85;100.00;102043.09;6072209;23;20351;-80
2021/10/08 07:00:32;;;;;;;18.83;9.85;;;7.30;99.90;;;9.08;100.00;102054.28;6097173;23;20022;-81
2021/10/08 07:02:59;;;;;;;21.50;10.52;;;7.50;99.90;;;9.25;100.00;102051.63;6051733;23;20018;-79
2021/10/08 07:05:26;;;;;;;24.00;11.77;;;7.70;99.90;;;9.36;100.00;102045.50;6097422;23;20007;-78
2021/10/08 07:07:53;;;;;;;32.47;11.82;;;7.80;99.90;;;9.62;100.00;102056.03;6074333;23;20018;-79
2021/10/08 07:10:20;;;;;;;28.75;12.35;;;8.00;99.90;;;9.72;100.00;102051.00;6075098;23;20312;-78
2021/10/08 07:12:46;;;;;;;34.17;13.20;;;8.10;99.90;;;9.93;100.00;102063.28;6100972;23;20049;-81
2021/10/08 07:15:20;;;;;;;25.77;12.52;;;8.30;99.90;;;10.09;100.00;102055.31;6077271;23;20006;-81
2021/10/08 07:17:51;;;;;;;24.77;11.73;;;8.50;99.90;;;10.35;100.00;102064.66;6077500;23;20452;-80
2021/10/08 07:20:24;;;;;;;27.95;12.10;;;8.70;99.90;;;10.53;100.00;102068.38;6101234;23;20022;-80
2021/10/08 07:22:53;;;;;;;29.17;13.93;;;8.80;99.90;;;10.74;100.00;102069.41;6100536;23;20040;-82
2021/10/08 07:25:23;;;;;;;26.80;12.57;;;9.00;99.90;;;10.94;100.00;102070.75;6074367;23;20016;-78
2021/10/08 07:27:49;;;;;;;26.48;12.50;;;9.20;99.90;;;11.14;100.00;102070.13;6099338;23;20010;-79
2021/10/08 07:30:17;;;;;;;22.90;11.32;;;9.40;99.90;;;11.31;100.00;102069.28;6100737;23;20011;-80
2021/10/08 07:32:45;;;;;;;18.60;11.07;;;9.60;99.90;;;11.48;100.00;102064.53;6078058;23;20065;-78
2021/10/08 07:35:15;;;;;;;24.35;11.38;;;9.80;99.90;;;11.64;98.89;102067.66;6080323;23;20570;-77
2021/10/08 07:37:43;;;;;;;20.77;10.63;;;9.90;99.90;;;11.81;98.53;102070.47;6053346;23;20066;-81
2021/10/08 07:40:13;;;;;;;29.35;11.52;;;10.10;99.90;;;11.94;97.79;102071.41;6108899;23;20038;-79
2021/10/08 07:42:40;;;;;;;24.90;10.88;;;10.30;99.90;;;12.12;97.18;102065.44;6099902;23;20041;-79
2021/10/08 07:45:12;;;;;;;21.20;10.38;;;10.40;99.90;;;12.32;96.09;102071.47;6074781;23;20097;-77
2021/10/08 07:47:38;;;;;;;18.58;9.75;;;10.60;99.90;;;12.42;95.05;102069.13;6075700;23;20109;-80
2021/10/08 07:50:08;;;;;;;21.90;11.48;;;10.80;99.90;;;12.56;94.02;102069.69;6098890;23;20082;-80
2021/10/08 07:52:35;;;;;;;24.55;10.50;;;10.90;99.90;;;12.68;93.60;102081.00;6050791;23;20408;-80
2021/10/08 07:55:03;;;;;;;17.80;10.63;;;11.00;99.90;;;12.92;92.13;102074.75;6074188;23;20090;-79
2021/10/08 07:57:29;;;;;;;14.40;9.45;;;11.30;99.90;;;13.10;90.56;102075.50;6097130;23;20040;-81
2021/10/08 07:59:55;;;;;;;16.08;9.13;;;11.40;99.90;;;13.25;89.28;102074.91;6096623;23;20396;-80
2021/10/08 08:02:22;;;;;;;17.25;8.55;;;11.60;99.90;;;13.47;88.16;102068.94;6096999;23;20013;-81
2021/10/08 08:04:48;;;;;;;15.77;8.02;;;11.80;99.90;;;13.55;86.56;102075.66;6099300;23;20007;-80
2021/10/08 08:07:14;;;;;;;18.98;8.05;;;11.90;99.90;;;13.72;87.10;102069.84;6100460;23;20006;-81
2021/10/08 08:09:39;;;;;;;14.05;7.95;;;12.10;99.90;;;13.89;86.07;102074.47;6101734;23;20011;-80
2021/10/08 08:12:08;;;;;;;9.85;7.07;;;12.30;99.90;;;14.14;85.96;102076.19;6077321;23;20025;-78
2021/10/08 08:14:34;;;;;;;10.43;7.18;;;12.40;99.90;;;14.37;85.09;102082.22;6102645;23;20010;-79
2021/10/08 08:17:02;;;;;;;11.77;7.68;;;12.70;99.90;;;14.35;84.69;102074.16;6103483;23;20013;-78
2021/10/08 08:19:28;;;;;;;13.57;7.93;;;12.80;99.90;;;14.62;83.52;102084.72;6102024;23;20026;-80
2021/10/08 08:21:54;;;;;;;14.05;7.75;;;13.10;99.90;;;14.86;82.38;102089.53;6108003;23;20021;-82
2021/10/08 08:24:20;;;;;;;13.38;7.75;;;13.20;99.90;;;14.90;80.07;102079.19;6113655;23;20002;-81
2021/10/08 08:26:48;;;;;;;12.30;6.97;;;13.20;99.90;;;15.04;79.88;102076.84;6113494;23;20002;-81
2021/10/08 08:29:14;;;;;;;13.07;7.63;;;13.40;99.90;;;14.92;79.20;102081.66;6114696;23;19990;-82
2021/10/08 08:31:41;;;;;;;11.98;7.93;;;13.30;99.90;;;14.89;79.35;102073.94;6115359;23;20066;-84
2021/10/08 08:34:08;;;;;;;11.32;7.32;;;13.30;99.90;;;15.10;81.12;102083.84;6088817;23;20002;-83
2021/10/08 08:36:35;;;;;;;11.43;7.47;;;13.40;99.90;;;15.31;78.37;102076.06;6115072;23;20002;-83
2021/10/08 08:39:07;;;;;;;14.60;6.85;;;13.60;99.90;;;15.57;77.86;102080.50;6088973;23;20018;-84
2021/10/08 08:41:35;;;;;;;10.85;7.30;;;13.70;99.90;;;15.88;77.79;102077.75;6112994;23;20038;-83
2021/10/08 08:44:02;;;;;;;12.13;7.07;;;14.10;99.90;;;15.92;75.08;102075.03;6114291;23;20041;-83
2021/10/08 08:46:29;;;;;;;10.90;7.43;;;14.10;99.90;;;16.02;75.12;102069.69;6114273;23;20038;-83
2021/10/08 08:48:55;;;;;;;9.30;6.78;;;14.30;99.90;;;16.29;75.21;102073.63;6089287;23;20011;-82
2021/10/08 08:51:25;;;;;;;12.75;7.65;;;14.40;99.90;;;16.46;74.44;102073.28;6113701;23;20014;-83
2021/10/08 08:53:57;;;;;;;14.32;7.25;;;14.50;99.90;;;16.56;74.25;102072.78;6114310;23;20026;-82
2021/10/08 08:56:25;;;;;;;11.25;6.38;;;14.70;99.90;;;16.88;75.02;102076.38;6092837;23;20022;-81
2021/10/08 08:59:10;;;;;;;9.02;6.32;;;14.90;99.90;;;17.17;72.06;102078.69;6118818;23;20007;-83
2021/10/08 09:02:02;;;;;;;6.93;5.97;;;15.20;99.90;;;17.30;70.52;102077.38;6092818;23;20010;-83
2021/10/08 09:04:36;;;;;;;7.97;6.05;;;15.40;99.90;;;17.24;70.26;102076.00;6096953;23;20103;-82
2021/10/08 09:07:13;;;;;;;10.65;6.20;;;15.30;99.90;;;17.30;72.60;102076.53;6091914;23;20066;-83
2021/10/08 09:09:39;;;;;;;9.25;6.38;;;15.50;99.90;;;17.40;69.54;102067.50;6091055;23;20006;-84
2021/10/08 09:12:05;;;;;;;9.52;6.13;;;15.60;99.90;;;17.36;68.41;102070.25;6115142;23;20017;-85
2021/10/08 09:14:31;;;;;;;8.95;6.65;;;15.60;99.90;;;17.25;69.33;102074.81;6115362;23;20007;-82
2021/10/08 09:17:19;;;;;;;8.85;5.55;;;15.50;99.90;;;17.40;69.75;102081.63;6113423;23;20021;-82
2021/10/08 09:20:09;;;;;;;9.32;6.20;;;15.60;99.90;;;17.34;69.52;102069.78;6089528;23;20007;-82
2021/10/08 09:22:40;;;;;;;10.05;6.70;;;15.60;99.90;;;17.30;68.22;102062.44;6110858;23;20041;-82
2021/10/08 09:25:20;;;;;;;9.20;6.03;;;15.60;99.90;;;17.59;70.44;102069.53;6115282;23;20026;-83
2021/10/08 09:27:53;;;;;;;10.25;6.95;;;15.80;99.90;;;17.91;67.39;102071.00;6115234;23;20026;-82
2021/10/08 09:30:26;;;;;;;9.77;6.63;;;16.00;99.90;;;18.08;66.77;102070.50;6089814;23;20015;-83
2021/10/08 09:32:55;;;;;;;11.27;7.28;;;16.20;99.90;;;17.95;66.07;102069.03;6068181;23;20006;-82
2021/10/08 09:35:26;;;;;;;9.80;6.68;;;16.10;99.90;;;18.10;66.05;102070.16;6113783;23;20038;-85
2021/10/08 09:38:04;;;;;;;11.23;7.13;;;16.10;99.90;;;18.19;65.81;102073.53;6089882;23;20006;-84
2021/10/08 09:40:48;;;;;;;10.93;6.63;;;16.30;99.90;;;18.34;65.49;102070.59;6115899;23;20006;-83
2021/10/08 09:43:35;;;;;;;8.95;6.45;;;16.30;99.90;;;18.34;64.63;102067.75;6114640;23;20006;-84
2021/10/08 09:46:05;;;;;;;8.38;6.65;;;16.50;99.90;;;18.49;63.96;102068.03;6114331;23;20057;-85
2021/10/08 09:48:30;;;;;;;10.75;6.70;;;16.60;99.90;;;18.38;64.13;102067.81;6066250;23;20014;-82
2021/10/08 09:51:13;;;;;;;8.57;5.90;;;16.70;99.90;;;18.49;63.68;102074.50;6113269;23;20017;-82
2021/10/08 09:53:55;;;;;;;9.52;6.05;;;16.80;99.90;;;18.69;62.63;102069.59;6089995;23;20003;-83
2021/10/08 09:56:42;;;;;;;8.70;5.93;;;17.00;99.90;;;19.06;62.69;102076.25;6115836;23;20010;-84
2021/10/08 09:59:13;;;;;;;9.43;5.85;;;17.20;99.90;;;19.35;62.30;102071.81;6091586;23;19998;-84
2021/10/08 10:01:45;;;;;;;11.18;6.75;;;17.40;99.90;;;19.52;61.75;102074.13;6115036;23;20010;-85
2021/10/08 10:04:12;;;;;;;8.70;5.93;;;17.60;99.90;;;19.75;61.35;102065.47;6092472;23;19999;-85
2021/10/08 10:06:39;;;;;;;13.10;6.93;;;17.80;99.90;;;19.97;58.87;102067.38;6118465;23;20033;-84
2021/10/08 10:09:08;;;;;;;11.38;6.88;;;18.00;99.90;;;19.87;60.87;102062.38;6069267;23;19998;-84
2021/10/08 10:11:35;;;;;;;11.52;6.68;;;18.10;99.90;;;20.12;58.67;102060.63;6092329;23;20274;-85